createdAt,value
2023-01-03T00:01:38.753Z,97999.97
2023-01-03T00:06:35.281Z,97999.88
2023-01-03T00:11:52.361Z,98011.53
2023-01-03T00:16:46.119Z,98008.41
2023-01-03T00:21:40.717Z,98014.91
2023-01-03T00:26:36.408Z,98015.97
2023-01-03T00:31:30.029Z,98017.50
2023-01-03T00:36:23.770Z,98032.00
2023-01-03T00:41:20.688Z,98014.88
2023-01-03T00:46:19.805Z,98015.97
2023-01-03T00:51:18.118Z,98035.38
2023-01-03T00:56:14.449Z,98041.59
2023-01-03T01:01:11.418Z,98056.81
2023-01-03T01:06:15.980Z,98063.03
2023-01-03T01:11:11.679Z,98073.00
2023-01-03T01:16:08.093Z,98061.47
2023-01-03T01:21:04.550Z,98063.31
2023-01-03T01:26:01.641Z,98050.22
2023-01-03T01:30:55.040Z,98048.22
2023-01-03T01:35:48.506Z,98037.75
2023-01-03T01:40:41.939Z,98044.38
2023-01-03T01:45:38.223Z,98036.19
2023-01-03T01:50:41.728Z,98037.66
2023-01-03T01:55:41.898Z,98036.41
2023-01-03T02:00:38.712Z,98043.66
2023-01-03T02:05:36.298Z,98064.72
2023-01-03T02:11:02.179Z,98054.88
2023-01-03T02:16:21.844Z,98060.31
2023-01-03T02:21:54.895Z,98041.78
2023-01-03T02:27:03.839Z,98042.09
2023-01-03T02:32:06.698Z,98056.72
2023-01-03T02:37:19.077Z,98052.56
2023-01-03T02:42:40.474Z,98051.63
2023-01-03T02:47:46.372Z,98055.09
2023-01-03T02:52:43.101Z,98057.66
2023-01-03T02:57:43.411Z,98043.03
2023-01-03T03:02:44.313Z,98029.97
2023-01-03T03:21:17.885Z,98040.13
2023-01-03T03:26:17.301Z,98041.41
2023-01-03T03:31:17.645Z,98035.25
2023-01-03T03:36:21.900Z,98041.00
2023-01-03T03:41:46.267Z,98056.78
2023-01-03T03:46:54.205Z,98046.63
2023-01-03T03:51:52.245Z,98043.03
2023-01-03T03:56:51.021Z,98036.72
2023-01-03T04:01:47.508Z,98034.41
2023-01-03T04:06:47.925Z,98030.09
2023-01-03T04:11:42.648Z,98028.25
2023-01-03T04:16:37.781Z,98025.81
2023-01-03T04:21:31.348Z,98028.72
2023-01-03T04:26:24.703Z,98023.88
2023-01-03T04:31:19.437Z,98029.47
2023-01-03T04:36:12.876Z,98019.97
2023-01-03T04:41:08.195Z,98027.91
2023-01-03T04:46:01.571Z,98032.38
2023-01-03T04:50:58.583Z,98039.09
2023-01-03T04:55:54.518Z,98031.50
2023-01-03T05:00:48.130Z,98036.03
2023-01-03T05:05:43.489Z,98034.41
2023-01-03T05:10:40.089Z,98028.03
2023-01-03T05:15:39.459Z,98040.00
2023-01-03T05:20:50.195Z,98040.00
2023-01-03T05:25:50.801Z,98039.78
2023-01-03T06:52:54.622Z,98126.13
2023-01-03T06:57:48.223Z,98113.94
2023-01-03T07:02:41.887Z,98123.53
2023-01-03T07:23:04.253Z,98141.00
2023-01-03T07:28:05.359Z,98149.69
2023-01-03T07:33:00.498Z,98139.31
2023-01-03T07:37:54.261Z,98141.72
2023-01-03T07:43:06.609Z,98148.56
2023-01-03T07:48:00.003Z,98159.00
2023-01-03T07:52:53.514Z,98150.53
2023-01-03T07:57:49.420Z,98147.03
2023-01-03T08:02:42.885Z,98146.88
2023-01-03T08:07:36.573Z,98155.34
2023-01-03T08:12:47.129Z,98156.91
2023-01-03T08:17:41.893Z,98161.50
2023-01-03T08:22:35.455Z,98158.75
2023-01-03T08:27:29.016Z,98157.63
2023-01-03T08:32:22.930Z,98158.25
2023-01-03T08:37:19.516Z,98159.94
2023-01-03T08:42:20.784Z,98173.78
2023-01-03T08:47:17.206Z,98178.06
2023-01-03T08:52:10.728Z,98177.25
2023-01-03T08:57:05.822Z,98178.72
2023-01-03T09:02:00.670Z,98191.72
2023-01-03T09:06:54.264Z,98192.56
2023-01-03T09:11:47.565Z,98204.19
2023-01-03T09:16:48.580Z,98213.81
2023-01-03T09:21:42.573Z,98219.16
2023-01-03T09:26:36.087Z,98223.69
2023-01-03T09:31:34.951Z,98222.22
2023-01-03T09:36:30.127Z,98227.91
2023-01-03T09:41:26.993Z,98226.22
2023-01-03T09:46:24.912Z,98230.50
2023-01-03T09:51:42.808Z,98228.09
2023-01-03T09:56:54.859Z,98228.41
2023-01-03T10:02:30.112Z,98229.53
2023-01-03T10:07:49.304Z,98225.72
2023-01-03T10:12:59.083Z,98219.03
2023-01-03T10:18:08.425Z,98216.63
2023-01-03T10:23:02.346Z,98214.63
2023-01-03T10:28:07.868Z,98216.41
2023-01-03T10:33:31.929Z,98216.59
2023-01-03T10:38:25.890Z,98209.88
2023-01-03T10:43:29.724Z,98207.16
2023-01-03T10:48:24.116Z,98214.44
2023-01-03T10:53:23.329Z,98208.94
2023-01-03T10:58:28.055Z,98217.53
2023-01-03T11:03:26.688Z,98201.78
2023-01-03T11:08:24.228Z,98206.94
2023-01-03T11:13:32.745Z,98200.44
2023-01-03T11:25:09.904Z,98196.03
2023-01-03T11:30:27.864Z,98195.63
2023-01-03T11:36:20.862Z,98180.16
2023-01-03T11:41:40.144Z,98182.69
2023-01-03T11:46:59.455Z,98193.78
2023-01-03T11:52:19.852Z,98185.50
2023-01-03T11:57:27.715Z,98183.91
2023-01-03T12:03:05.849Z,98184.41
2023-01-03T12:08:16.479Z,98176.19
2023-01-03T12:13:29.695Z,98177.13
2023-01-03T12:18:40.518Z,98177.53
2023-01-03T12:23:42.780Z,98174.50
2023-01-03T12:28:41.948Z,98172.09
2023-01-03T12:33:44.308Z,98171.59
2023-01-03T12:38:43.586Z,98174.91
2023-01-03T12:43:47.264Z,98177.94
2023-01-03T12:49:08.186Z,98174.53
2023-01-03T12:54:24.161Z,98170.16
2023-01-03T12:59:50.375Z,98175.97
2023-01-03T13:04:48.207Z,98177.56
2023-01-03T13:09:50.307Z,98170.44
2023-01-03T13:14:56.086Z,98172.81
2023-01-03T13:19:59.517Z,98175.09
2023-01-03T13:24:54.161Z,98177.03
2023-01-03T13:29:59.543Z,98183.31
2023-01-03T13:35:34.523Z,98179.56
2023-01-03T13:40:59.659Z,98173.28
2023-01-03T13:45:56.162Z,98182.03
2023-01-03T13:51:35.453Z,98183.91
2023-01-03T13:56:34.044Z,98186.44
2023-01-03T14:01:56.398Z,98183.06
2023-01-03T14:12:38.495Z,98195.97
2023-01-03T14:17:38.125Z,98203.88
2023-01-03T14:22:40.975Z,98198.88
2023-01-03T14:27:40.862Z,98208.28
2023-01-03T14:32:37.294Z,98209.03
2023-01-03T14:37:33.280Z,98203.25
2023-01-03T14:42:27.428Z,98208.91
2023-01-03T14:47:22.613Z,98197.47
2023-01-03T15:02:50.793Z,98201.91
2023-01-03T15:12:51.302Z,98191.63
2023-01-03T15:28:14.087Z,98199.75
2023-01-03T15:44:43.317Z,98209.78
2023-01-03T15:59:57.514Z,98220.47
2023-01-03T16:04:51.557Z,98225.19
2023-01-03T16:09:46.814Z,98232.94
2023-01-03T16:14:44.918Z,98226.88
2023-01-03T16:19:39.783Z,98238.31
2023-01-03T16:24:34.230Z,98243.53
2023-01-03T16:29:27.601Z,98242.53
2023-01-03T16:34:27.522Z,98233.78
2023-01-03T16:39:28.646Z,98241.63
2023-01-03T16:44:22.078Z,98235.63
2023-01-03T16:49:15.505Z,98236.69
2023-01-03T16:54:09.845Z,98238.06
2023-01-03T16:59:04.886Z,98240.59
2023-01-03T17:03:58.260Z,98235.25
2023-01-03T17:08:55.511Z,98242.06
2023-01-03T17:14:01.732Z,98245.78
2023-01-03T17:18:57.430Z,98247.56
2023-01-03T17:23:52.463Z,98245.34
2023-01-03T17:28:48.693Z,98248.41
2023-01-03T17:33:42.204Z,98257.75
2023-01-03T17:38:37.394Z,98256.09
2023-01-03T17:43:31.293Z,98262.59
2023-01-03T17:48:42.106Z,98265.00
2023-01-03T17:53:37.752Z,98265.47
2023-01-03T17:58:35.259Z,98270.06
2023-01-03T18:03:30.439Z,98262.06
2023-01-03T18:08:26.240Z,98269.63
2023-01-03T18:34:41.792Z,98290.34
2023-01-03T18:39:36.637Z,98296.38
2023-01-03T22:00:45.458Z,98290.41
2023-01-03T22:05:39.012Z,98283.84
